createdAt,value
2018-08-03T00:02:12.774Z,21.23
2018-08-03T00:04:40.047Z,21.28
2018-08-03T00:07:07.510Z,21.28
2018-08-03T00:09:34.791Z,21.19
2018-08-03T00:12:02.059Z,21.10
2018-08-03T00:14:29.359Z,21.07
2018-08-03T00:16:58.268Z,21.05
2018-08-03T00:22:15.650Z,20.95
2018-08-03T00:24:42.902Z,20.88
2018-08-03T00:27:10.166Z,20.85
2018-08-03T00:29:37.483Z,20.81
2018-08-03T00:32:07.730Z,20.75
2018-08-03T00:34:35.005Z,20.64
2018-08-03T00:37:02.256Z,20.61
2018-08-03T00:39:39.304Z,20.57
2018-08-03T00:42:06.555Z,20.50
2018-08-03T00:44:33.850Z,20.45
2018-08-03T00:47:01.124Z,20.43
2018-08-03T00:49:28.407Z,20.37
2018-08-03T00:51:55.620Z,20.22
2018-08-03T00:54:22.915Z,20.09
2018-08-03T00:56:50.214Z,20.03
2018-08-03T00:59:17.513Z,20.03
2018-08-03T01:01:44.791Z,20.02
2018-08-03T01:04:12.093Z,19.98
2018-08-03T01:06:39.359Z,19.88
2018-08-03T01:09:08.790Z,19.84
2018-08-03T01:11:36.088Z,19.82
2018-08-03T01:14:03.379Z,19.80
2018-08-03T01:16:34.407Z,19.73
2018-08-03T01:19:01.666Z,19.66
2018-08-03T01:21:28.901Z,19.62
2018-08-03T01:26:30.209Z,19.58
2018-08-03T01:28:57.516Z,19.54
2018-08-03T01:31:24.789Z,19.59
2018-08-03T01:33:52.038Z,19.59
2018-08-03T01:36:19.439Z,19.62
2018-08-03T01:38:46.671Z,19.56
2018-08-03T01:41:13.933Z,19.52
2018-08-03T01:43:41.202Z,19.46
2018-08-03T01:46:08.430Z,19.45
2018-08-03T01:48:35.738Z,19.45
2018-08-03T01:51:03.047Z,19.42
2018-08-03T01:53:30.281Z,19.36
2018-08-03T01:55:57.620Z,19.28
2018-08-03T01:58:24.886Z,19.18
2018-08-03T02:00:52.135Z,19.15
2018-08-03T02:03:19.506Z,19.19
2018-08-03T02:05:46.718Z,19.16
2018-08-03T02:08:24.786Z,19.16
2018-08-03T02:11:03.222Z,19.06
2018-08-03T02:13:41.242Z,18.97
2018-08-03T02:16:08.488Z,18.91
2018-08-03T02:18:35.744Z,18.91
2018-08-03T02:21:03.124Z,18.97
2018-08-03T02:23:30.415Z,19.03
2018-08-03T02:25:57.695Z,19.08
2018-08-03T02:28:24.944Z,19.10
2018-08-03T02:30:52.213Z,19.10
2018-08-03T02:33:19.443Z,19.11
2018-08-03T02:35:46.708Z,19.09
2018-08-03T02:38:13.939Z,19.03
2018-08-03T02:40:41.802Z,19.01
2018-08-03T02:43:09.042Z,19.03
2018-08-03T02:45:36.318Z,19.02
2018-08-03T02:48:03.586Z,18.99
2018-08-03T02:50:30.874Z,18.96
2018-08-03T02:52:58.128Z,18.94
2018-08-03T02:55:25.379Z,18.88
2018-08-03T02:57:52.598Z,18.87
2018-08-03T03:00:19.878Z,18.88
2018-08-03T03:02:47.275Z,18.91
2018-08-03T03:05:14.692Z,18.86
2018-08-03T03:07:41.941Z,18.81
2018-08-03T03:10:09.225Z,18.74
2018-08-03T03:12:36.491Z,18.69
2018-08-03T03:15:04.651Z,18.73
2018-08-03T03:17:34.443Z,18.80
2018-08-03T03:20:03.006Z,18.88
2018-08-03T03:22:31.552Z,18.88
2018-08-03T03:24:59.042Z,18.86
2018-08-03T03:27:26.330Z,18.80
2018-08-03T03:29:53.682Z,18.68
2018-08-03T03:32:20.977Z,18.65
2018-08-03T03:34:48.382Z,18.63
2018-08-03T03:37:15.712Z,18.65
2018-08-03T03:39:43.082Z,18.73
2018-08-03T03:42:10.397Z,18.75
2018-08-03T03:44:38.330Z,18.72
2018-08-03T03:47:05.665Z,18.69
2018-08-03T03:49:33.037Z,18.67
2018-08-03T03:52:00.400Z,18.68
2018-08-03T03:54:27.801Z,18.69
2018-08-03T03:56:55.323Z,18.74
2018-08-03T03:59:22.893Z,18.72
2018-08-03T04:01:50.272Z,18.75
2018-08-03T04:04:17.662Z,18.77
2018-08-03T04:06:45.083Z,18.75
2018-08-03T04:09:13.208Z,18.75
2018-08-03T04:11:41.098Z,18.81
2018-08-03T04:14:08.680Z,18.85
2018-08-03T04:16:40.011Z,18.90
2018-08-03T04:19:07.534Z,18.97
2018-08-03T04:21:34.956Z,19.05
2018-08-03T04:24:02.271Z,19.12
2018-08-03T04:26:29.926Z,19.13
2018-08-03T04:28:57.466Z,19.04
2018-08-03T04:31:24.822Z,18.98
2018-08-03T04:33:52.217Z,19.01
2018-08-03T04:36:19.720Z,19.13
2018-08-03T04:38:47.325Z,19.23
2018-08-03T04:41:14.743Z,19.33
2018-08-03T04:43:42.067Z,19.40
2018-08-03T04:46:09.482Z,19.47
2018-08-03T04:48:36.961Z,19.53
2018-08-03T04:51:04.403Z,19.63
2018-08-03T04:53:31.922Z,19.74
2018-08-03T04:55:59.283Z,19.83
2018-08-03T04:58:26.810Z,19.93
2018-08-03T05:00:54.732Z,20.04
2018-08-03T05:03:22.202Z,20.19
2018-08-03T05:05:49.671Z,20.31
2018-08-03T05:08:17.079Z,20.48
2018-08-03T05:10:44.741Z,20.68
2018-08-03T05:13:12.114Z,20.88
2018-08-03T05:15:40.111Z,21.00
2018-08-03T05:18:07.895Z,21.19
2018-08-03T05:20:35.334Z,21.33
2018-08-03T05:23:02.892Z,21.46
2018-08-03T05:25:30.315Z,21.70
2018-08-03T05:27:57.694Z,21.93
2018-08-03T05:30:25.245Z,22.17
2018-08-03T05:33:05.991Z,22.39
2018-08-03T05:35:33.446Z,22.56
2018-08-03T05:38:00.785Z,22.80
2018-08-03T05:40:28.175Z,22.94
2018-08-03T05:42:55.667Z,22.91
2018-08-03T05:45:22.985Z,23.12
2018-08-03T05:47:50.379Z,23.20
2018-08-03T05:50:17.854Z,23.28
2018-08-03T05:52:45.250Z,23.37
2018-08-03T05:55:12.861Z,23.70
2018-08-03T05:57:40.351Z,23.93
2018-08-03T06:00:07.770Z,24.09
2018-08-03T06:02:35.227Z,24.07
2018-08-03T06:05:02.612Z,24.22
2018-08-03T06:07:30.015Z,24.47
2018-08-03T06:09:57.379Z,24.63
2018-08-03T06:12:24.757Z,24.93
2018-08-03T06:14:52.236Z,24.91
2018-08-03T06:17:19.776Z,25.22
2018-08-03T06:19:47.122Z,25.43
2018-08-03T06:22:14.517Z,25.62
2018-08-03T06:24:43.053Z,25.51
2018-08-03T06:27:10.407Z,25.80
2018-08-03T06:29:37.827Z,26.06
2018-08-03T06:32:05.144Z,26.36
2018-08-03T06:34:32.465Z,26.51
2018-08-03T06:36:59.811Z,26.70
2018-08-03T06:39:27.138Z,26.21
2018-08-03T06:41:54.508Z,26.52
2018-08-03T06:44:21.855Z,26.62
2018-08-03T06:46:49.230Z,26.92
2018-08-03T06:49:16.563Z,27.21
2018-08-03T06:51:43.915Z,27.53
2018-08-03T06:54:11.299Z,27.10
2018-08-03T06:56:39.490Z,27.33
2018-08-03T06:59:07.059Z,27.06
2018-08-03T07:01:34.452Z,27.29
2018-08-03T07:04:02.115Z,27.26
2018-08-03T07:06:29.545Z,27.45
2018-08-03T07:08:58.304Z,27.50
2018-08-03T07:11:25.683Z,27.91
2018-08-03T07:13:53.366Z,27.90
2018-08-03T07:16:21.174Z,27.73
2018-08-03T07:18:49.041Z,28.05
2018-08-03T07:21:22.848Z,28.55
2018-08-03T07:23:50.357Z,28.96
2018-08-03T07:26:17.755Z,29.18
2018-08-03T07:28:45.152Z,29.76
2018-08-03T07:31:12.520Z,29.53
2018-08-03T07:33:39.962Z,29.55
2018-08-03T07:36:07.680Z,29.53
2018-08-03T07:38:35.296Z,29.74
2018-08-03T07:41:03.656Z,29.70
2018-08-03T07:43:31.415Z,29.79
2018-08-03T07:45:58.986Z,30.18
2018-08-03T07:48:26.672Z,29.81
2018-08-03T07:50:54.464Z,30.19
2018-08-03T07:53:21.844Z,30.57
2018-08-03T07:56:19.767Z,30.31
2018-08-03T07:58:47.187Z,30.79
2018-08-03T08:01:14.497Z,31.08
2018-08-03T08:03:41.858Z,31.40
2018-08-03T08:06:09.256Z,31.48
2018-08-03T08:08:36.680Z,31.59
2018-08-03T08:11:04.104Z,31.35
2018-08-03T08:13:31.497Z,31.06
2018-08-03T08:15:58.889Z,31.40
2018-08-03T08:18:26.302Z,31.94
2018-08-03T08:20:53.697Z,32.31
2018-08-03T08:23:21.059Z,32.21
2018-08-03T08:25:48.475Z,32.37
2018-08-03T08:28:16.375Z,32.73
2018-08-03T08:33:17.653Z,32.82
2018-08-03T08:35:44.951Z,31.75
2018-08-03T08:38:12.540Z,31.29
2018-08-03T08:40:39.975Z,31.66
2018-08-03T08:43:07.412Z,31.41
2018-08-03T08:45:34.864Z,31.85
2018-08-03T08:48:02.399Z,32.02
2018-08-03T08:50:29.738Z,32.32
2018-08-03T08:52:57.480Z,32.05
2018-08-03T08:55:24.849Z,32.08
2018-08-03T08:57:52.461Z,31.72
2018-08-03T09:00:19.888Z,32.03
2018-08-03T09:02:47.292Z,31.96
2018-08-03T09:05:14.698Z,32.37
2018-08-03T09:07:42.256Z,32.77
2018-08-03T09:10:10.055Z,33.02
2018-08-03T09:12:38.825Z,32.78
2018-08-03T09:15:06.531Z,32.17
2018-08-03T09:17:34.773Z,32.72
2018-08-03T09:20:02.438Z,32.93
2018-08-03T09:22:29.930Z,32.57
2018-08-03T09:24:57.325Z,32.86
2018-08-03T09:27:24.771Z,33.07
2018-08-03T09:29:52.213Z,32.72
2018-08-03T09:32:19.578Z,33.24
2018-08-03T09:34:47.122Z,33.05
2018-08-03T09:37:14.551Z,33.58
2018-08-03T09:39:41.915Z,33.73
2018-08-03T09:42:09.268Z,33.44
2018-08-03T09:44:36.708Z,33.29
2018-08-03T09:47:04.074Z,33.45
2018-08-03T09:49:31.642Z,33.14
2018-08-03T09:51:59.043Z,32.99
2018-08-03T09:54:26.455Z,33.75
2018-08-03T09:56:53.888Z,34.02
2018-08-03T09:59:22.012Z,33.54
2018-08-03T10:01:49.486Z,33.37
2018-08-03T10:04:16.802Z,33.32
2018-08-03T10:06:44.132Z,33.60
2018-08-03T10:09:11.554Z,33.58
2018-08-03T10:11:39.060Z,33.72
2018-08-03T10:14:06.416Z,33.86
2018-08-03T10:16:33.803Z,34.73
2018-08-03T10:19:01.193Z,34.54
2018-08-03T10:21:28.572Z,34.78
2018-08-03T10:23:55.956Z,34.99
2018-08-03T10:26:23.419Z,35.30
2018-08-03T10:28:50.975Z,35.21
2018-08-03T10:31:18.321Z,35.31
2018-08-03T10:33:46.220Z,35.04
2018-08-03T10:36:13.096Z,35.15
2018-08-03T10:38:40.518Z,35.23
2018-08-03T10:41:07.951Z,35.19
2018-08-03T10:43:35.298Z,35.13
2018-08-03T10:46:02.711Z,34.88
2018-08-03T10:48:30.027Z,34.79
2018-08-03T10:50:57.471Z,33.69
2018-08-03T10:53:24.818Z,34.21
2018-08-03T10:55:58.935Z,34.85
2018-08-03T10:58:26.570Z,35.04
2018-08-03T11:00:53.979Z,34.35
2018-08-03T11:03:21.348Z,34.52
2018-08-03T11:05:48.774Z,34.40
2018-08-03T11:08:16.191Z,34.24
2018-08-03T11:10:43.741Z,33.85
2018-08-03T11:13:11.113Z,34.09
2018-08-03T11:15:38.706Z,34.46
2018-08-03T11:18:06.325Z,33.91
2018-08-03T11:20:34.569Z,34.34
2018-08-03T11:23:01.923Z,34.84
2018-08-03T11:25:29.420Z,34.57
2018-08-03T11:27:56.791Z,34.06
2018-08-03T11:30:29.247Z,34.13
2018-08-03T11:33:01.740Z,34.44
2018-08-03T11:35:34.034Z,34.48
2018-08-03T11:38:16.339Z,34.45
2018-08-03T11:40:52.010Z,33.90
2018-08-03T11:43:36.734Z,34.68
2018-08-03T11:46:07.527Z,34.57
2018-08-03T11:48:38.629Z,34.50
2018-08-03T11:51:18.321Z,34.85
2018-08-03T11:53:54.536Z,35.27
2018-08-03T11:56:37.599Z,34.67
2018-08-03T11:59:09.098Z,34.92
2018-08-03T12:01:43.702Z,34.91
2018-08-03T12:04:21.795Z,34.42
2018-08-03T12:06:55.188Z,35.04
2018-08-03T12:09:34.220Z,34.97
2018-08-03T12:12:07.676Z,35.09
2018-08-03T12:14:47.407Z,34.89
2018-08-03T12:17:20.007Z,35.22
2018-08-03T12:19:52.843Z,35.18
2018-08-03T12:22:33.146Z,34.50
2018-08-03T12:25:03.845Z,34.66
2018-08-03T12:27:31.513Z,34.92
2018-08-03T12:29:59.064Z,35.16
2018-08-03T12:32:26.460Z,35.34
2018-08-03T12:34:53.884Z,35.48
2018-08-03T12:37:21.246Z,35.19
2018-08-03T12:39:48.623Z,34.40
2018-08-03T12:42:16.094Z,34.96
2018-08-03T12:44:57.469Z,34.95
2018-08-03T12:47:24.818Z,34.94
2018-08-03T12:49:52.201Z,35.14
2018-08-03T12:52:19.623Z,35.57
2018-08-03T12:54:47.015Z,35.68
2018-08-03T12:57:14.472Z,35.19
2018-08-03T12:59:41.920Z,35.16
2018-08-03T13:02:09.459Z,35.13
2018-08-03T13:04:36.939Z,35.41
2018-08-03T13:07:04.387Z,35.15
2018-08-03T13:09:31.835Z,35.13
2018-08-03T13:11:59.268Z,35.62
2018-08-03T13:14:26.775Z,35.59
2018-08-03T13:16:54.230Z,35.61
2018-08-03T13:19:21.747Z,36.00
2018-08-03T13:21:49.252Z,35.54
2018-08-03T13:24:16.702Z,35.44
2018-08-03T13:26:44.206Z,35.44
2018-08-03T13:29:11.620Z,35.48
2018-08-03T13:31:39.142Z,35.67
2018-08-03T13:34:06.705Z,35.87
2018-08-03T13:36:34.501Z,35.68
2018-08-03T13:39:02.115Z,35.27
2018-08-03T13:41:29.631Z,35.15
2018-08-03T13:43:57.063Z,35.58
2018-08-03T13:46:24.764Z,35.14
2018-08-03T13:48:52.285Z,35.26
2018-08-03T13:51:19.993Z,35.20
2018-08-03T13:53:47.863Z,34.75
2018-08-03T13:56:15.946Z,35.15
2018-08-03T13:58:44.147Z,34.60
2018-08-03T14:01:22.920Z,34.38
2018-08-03T14:03:50.570Z,34.38
2018-08-03T14:06:18.357Z,34.64
2018-08-03T14:08:46.689Z,34.98
2018-08-03T14:11:14.930Z,34.83
2018-08-03T14:13:42.356Z,34.66
2018-08-03T14:16:09.923Z,34.18
2018-08-03T14:18:37.562Z,34.00
2018-08-03T14:21:05.008Z,33.71
2018-08-03T14:23:32.408Z,33.42
2018-08-03T14:25:59.763Z,33.51
2018-08-03T14:28:27.154Z,33.70
2018-08-03T14:30:54.504Z,33.57
2018-08-03T14:33:21.865Z,33.64
2018-08-03T14:35:49.261Z,33.45
2018-08-03T14:38:16.726Z,33.76
2018-08-03T14:40:44.068Z,33.81
2018-08-03T14:43:11.532Z,33.86
2018-08-03T14:45:38.884Z,33.51
2018-08-03T14:48:06.298Z,33.57
2018-08-03T14:50:33.713Z,33.68
2018-08-03T14:53:01.160Z,33.44
2018-08-03T14:55:28.889Z,33.60
2018-08-03T14:57:56.477Z,33.09
2018-08-03T15:00:23.939Z,33.15
2018-08-03T15:02:51.369Z,32.97
2018-08-03T15:05:18.864Z,32.87
2018-08-03T15:07:46.349Z,32.99
2018-08-03T15:10:13.821Z,33.10
2018-08-03T15:12:41.337Z,33.08
2018-08-03T15:15:08.825Z,33.12
2018-08-03T15:17:36.700Z,32.93
2018-08-03T15:20:05.221Z,32.87
2018-08-03T15:22:32.618Z,32.80
2018-08-03T15:25:00.131Z,32.75
2018-08-03T15:49:58.467Z,32.67
2018-08-03T15:52:25.888Z,32.52
2018-08-03T15:54:53.428Z,32.42
2018-08-03T15:57:20.875Z,32.47
2018-08-03T15:59:48.282Z,32.42
2018-08-03T16:02:15.696Z,32.36
2018-08-03T16:04:43.070Z,32.48
2018-08-03T16:07:10.510Z,32.35
2018-08-03T16:09:37.990Z,32.15
2018-08-03T16:12:06.066Z,32.06
2018-08-03T16:14:33.551Z,32.11
2018-08-03T16:17:00.919Z,32.05
2018-08-03T16:19:28.359Z,32.09
2018-08-03T16:21:55.951Z,31.99
2018-08-03T16:24:23.405Z,32.02
2018-08-03T16:26:50.802Z,32.12
2018-08-03T16:29:18.449Z,32.06
2018-08-03T16:31:45.819Z,32.04
2018-08-03T16:34:14.429Z,32.12
2018-08-03T16:36:41.841Z,32.20
2018-08-03T16:39:10.261Z,32.04
2018-08-03T16:41:37.987Z,31.93
2018-08-03T16:44:05.318Z,31.83
2018-08-03T16:46:32.747Z,31.72
2018-08-03T16:49:00.196Z,31.73
2018-08-03T16:51:27.624Z,31.69
2018-08-03T16:53:54.946Z,31.67
2018-08-03T16:56:22.379Z,31.65
2018-08-03T16:58:49.874Z,31.60
2018-08-03T17:01:18.087Z,31.61
2018-08-03T17:03:45.555Z,31.50
2018-08-03T17:06:12.948Z,31.60
2018-08-03T17:08:40.998Z,31.56
2018-08-03T17:11:08.405Z,31.44
2018-08-03T17:13:35.797Z,31.47
2018-08-03T17:16:03.190Z,31.43
2018-08-03T17:18:30.572Z,31.36
2018-08-03T17:20:57.906Z,31.37
2018-08-03T17:23:25.254Z,31.36
2018-08-03T17:25:52.645Z,31.41
2018-08-03T17:28:20.059Z,31.31
2018-08-03T17:30:47.417Z,31.31
2018-08-03T17:33:14.847Z,31.31
2018-08-03T17:35:42.174Z,31.26
2018-08-03T17:38:09.622Z,31.20
2018-08-03T17:40:37.110Z,31.17
2018-08-03T17:43:10.147Z,31.08
2018-08-03T17:45:47.146Z,31.03
2018-08-03T17:48:19.428Z,31.02
2018-08-03T17:50:46.904Z,30.91
2018-08-03T17:53:14.351Z,30.87
2018-08-03T17:55:41.990Z,30.85
2018-08-03T17:58:10.488Z,30.82
2018-08-03T18:00:38.004Z,30.74
2018-08-03T18:03:05.512Z,30.71
2018-08-03T18:05:33.040Z,30.61
2018-08-03T18:08:02.655Z,30.57
2018-08-03T18:10:33.225Z,30.52
2018-08-03T18:13:05.844Z,30.43
2018-08-03T18:15:43.136Z,30.36
2018-08-03T18:18:11.543Z,30.31
2018-08-03T18:20:38.979Z,30.27
2018-08-03T18:23:06.356Z,30.23
2018-08-03T18:25:33.873Z,30.16
2018-08-03T18:28:01.402Z,29.97
2018-08-03T18:30:28.956Z,29.53
2018-08-03T18:32:56.420Z,29.30
2018-08-03T18:35:23.858Z,29.15
2018-08-03T18:37:51.430Z,29.03
2018-08-03T18:40:18.885Z,28.87
2018-08-03T18:42:46.253Z,28.80
2018-08-03T18:45:13.899Z,28.70
2018-08-03T18:47:41.699Z,28.54
2018-08-03T18:50:09.078Z,28.39
2018-08-03T18:52:38.474Z,28.20
2018-08-03T18:55:07.332Z,28.00
2018-08-03T18:57:36.158Z,27.80
2018-08-03T19:00:09.035Z,27.65
2018-08-03T19:02:36.846Z,27.49
2018-08-03T19:05:05.437Z,27.39
2018-08-03T19:07:34.589Z,27.25
2018-08-03T19:10:03.171Z,27.21
2018-08-03T19:12:32.735Z,27.05
2018-08-03T19:15:01.748Z,26.83
2018-08-03T19:17:29.609Z,26.71
2018-08-03T19:19:57.477Z,26.69
2018-08-03T19:22:25.161Z,26.61
2018-08-03T19:24:54.114Z,26.38
2018-08-03T19:27:21.834Z,26.21
2018-08-03T19:29:49.836Z,26.18
2018-08-03T19:32:17.900Z,26.08
2018-08-03T19:35:01.138Z,26.06
2018-08-03T19:37:39.958Z,26.14
2018-08-03T19:40:24.558Z,26.32
2018-08-03T19:43:08.428Z,26.41
2018-08-03T19:45:36.641Z,26.35
2018-08-03T19:48:07.257Z,26.15
2018-08-03T19:50:36.137Z,25.96
2018-08-03T19:53:03.682Z,25.76
2018-08-03T19:55:31.726Z,25.50
2018-08-03T19:57:59.751Z,25.24
2018-08-03T20:00:37.006Z,25.08
2018-08-03T20:03:16.305Z,25.00
2018-08-03T20:05:45.308Z,24.98
2018-08-03T20:08:13.190Z,24.99
2018-08-03T20:10:41.088Z,24.93
2018-08-03T20:13:08.791Z,24.84
2018-08-03T20:15:36.288Z,24.75
2018-08-03T20:18:05.201Z,24.70
2018-08-03T20:20:33.812Z,24.67
2018-08-03T20:23:02.465Z,24.70
2018-08-03T20:25:36.585Z,24.69
2018-08-03T20:28:06.188Z,24.60
2018-08-03T20:30:34.205Z,24.44
2018-08-03T20:33:01.836Z,24.27
2018-08-03T20:35:30.407Z,24.19
2018-08-03T20:37:59.113Z,24.17
2018-08-03T20:40:26.772Z,24.19
2018-08-03T20:42:54.754Z,24.12
2018-08-03T20:45:22.471Z,24.12
2018-08-03T20:47:49.746Z,24.10
2018-08-03T20:50:17.023Z,24.12
2018-08-03T20:52:44.303Z,24.24
2018-08-03T20:55:11.566Z,24.33
2018-08-03T20:57:39.847Z,24.35
2018-08-03T21:00:07.125Z,24.31
2018-08-03T21:02:34.418Z,24.26
2018-08-03T21:05:01.717Z,24.15
2018-08-03T21:07:28.973Z,24.04
2018-08-03T21:09:56.235Z,23.90
2018-08-03T21:12:23.632Z,23.89
2018-08-03T21:14:50.906Z,23.84
2018-08-03T21:17:18.192Z,23.89
2018-08-03T21:19:45.440Z,23.97
2018-08-03T21:22:12.729Z,24.10
2018-08-03T21:24:40.008Z,24.19
2018-08-03T21:27:07.264Z,24.17
2018-08-03T21:29:34.497Z,24.18
2018-08-03T21:32:01.776Z,24.18
2018-08-03T21:34:29.022Z,24.21
2018-08-03T21:36:56.266Z,24.20
2018-08-03T21:39:23.491Z,24.15
2018-08-03T21:41:50.752Z,24.11
2018-08-03T21:44:18.021Z,24.09
2018-08-03T21:46:45.372Z,24.03
2018-08-03T21:49:12.603Z,23.94
2018-08-03T21:51:39.871Z,23.80
2018-08-03T21:54:07.113Z,23.74
2018-08-03T21:56:34.428Z,23.70
2018-08-03T21:59:01.900Z,23.76
2018-08-03T22:01:29.242Z,23.82
2018-08-03T22:03:56.533Z,23.90
2018-08-03T22:06:23.794Z,23.86
2018-08-03T22:08:51.091Z,23.91
2018-08-03T22:11:18.421Z,23.89
2018-08-03T22:13:45.694Z,23.94
2018-08-03T22:16:13.004Z,23.98
2018-08-03T22:18:40.297Z,24.02
2018-08-03T22:21:07.558Z,23.99
2018-08-03T22:23:34.838Z,23.95
2018-08-03T22:26:02.090Z,23.90
2018-08-03T22:28:29.391Z,23.76
2018-08-03T22:30:56.664Z,23.55
2018-08-03T22:33:23.934Z,23.41
2018-08-03T22:35:51.229Z,23.40
2018-08-03T22:38:18.543Z,23.43
2018-08-03T22:40:45.817Z,23.50
2018-08-03T22:43:13.098Z,23.46
2018-08-03T22:45:40.441Z,23.38
2018-08-03T22:48:07.726Z,23.25
2018-08-03T22:50:35.078Z,23.14
2018-08-03T22:53:02.426Z,23.03
2018-08-03T22:55:29.678Z,22.97
2018-08-03T22:57:56.954Z,23.04
2018-08-03T23:00:24.215Z,23.13
2018-08-03T23:02:51.504Z,23.23
2018-08-03T23:05:18.754Z,23.28
2018-08-03T23:07:46.018Z,23.27
2018-08-03T23:10:13.306Z,23.07
2018-08-03T23:12:40.592Z,22.82
2018-08-03T23:15:07.914Z,22.71
2018-08-03T23:17:35.191Z,22.65
2018-08-03T23:20:02.546Z,22.57
2018-08-03T23:22:29.854Z,22.60
2018-08-03T23:24:57.171Z,22.65
2018-08-03T23:27:24.486Z,22.65
2018-08-03T23:29:51.770Z,22.54
2018-08-03T23:32:19.055Z,22.42
2018-08-03T23:34:46.356Z,22.37
2018-08-03T23:37:13.638Z,22.30
2018-08-03T23:39:40.888Z,22.31
2018-08-03T23:42:08.171Z,22.36
2018-08-03T23:44:35.446Z,22.42
2018-08-03T23:47:02.762Z,22.48
2018-08-03T23:49:30.018Z,22.46
2018-08-03T23:51:57.291Z,22.47
2018-08-03T23:54:24.565Z,22.46
2018-08-03T23:56:51.805Z,22.49
2018-08-03T23:59:19.104Z,22.48
